sensor_id;sensor_type;location;lat;lon;timestamp;pressure;altitude;pressure_sealevel;temperature;humidity
3428;BME280;1727;42.624;23.406;2022-07-23T00:00:10;95109.97;;;23.81;56.37
3428;BME280;1727;42.624;23.406;2022-07-23T00:02:37;95112.22;;;23.77;56.46
3428;BME280;1727;42.624;23.406;2022-07-23T00:05:04;95109.72;;;23.69;56.40
3428;BME280;1727;42.624;23.406;2022-07-23T00:07:32;95110.56;;;23.69;56.49
3428;BME280;1727;42.624;23.406;2022-07-23T00:09:59;95118.41;;;23.71;57.12
3428;BME280;1727;42.624;23.406;2022-07-23T00:12:26;95112.63;;;23.67;57.48
3428;BME280;1727;42.624;23.406;2022-07-23T00:14:53;95111.59;;;23.62;58.26
3428;BME280;1727;42.624;23.406;2022-07-23T00:17:19;95121.28;;;23.63;57.84
3428;BME280;1727;42.624;23.406;2022-07-23T00:19:46;95121.22;;;23.36;59.01
3428;BME280;1727;42.624;23.406;2022-07-23T00:22:13;95124.69;;;23.17;60.38
3428;BME280;1727;42.624;23.406;2022-07-23T00:24:41;95127.78;;;23.21;60.55
3428;BME280;1727;42.624;23.406;2022-07-23T00:27:08;95128.34;;;23.09;61.32
3428;BME280;1727;42.624;23.406;2022-07-23T00:29:35;95134.69;;;22.95;61.89
3428;BME280;1727;42.624;23.406;2022-07-23T00:32:02;95133.53;;;22.76;61.79
3428;BME280;1727;42.624;23.406;2022-07-23T00:34:29;95137.03;;;22.77;62.24
3428;BME280;1727;42.624;23.406;2022-07-23T00:36:55;95132.19;;;22.87;62.42
3428;BME280;1727;42.624;23.406;2022-07-23T00:39:22;95133.06;;;23.01;62.40
3428;BME280;1727;42.624;23.406;2022-07-23T00:41:51;95137.44;;;23.15;61.80
3428;BME280;1727;42.624;23.406;2022-07-23T00:44:20;95123.03;;;23.23;61.06
3428;BME280;1727;42.624;23.406;2022-07-23T00:46:48;95119.53;;;23.22;61.20
3428;BME280;1727;42.624;23.406;2022-07-23T00:49:15;95133.97;;;23.34;60.90
3428;BME280;1727;42.624;23.406;2022-07-23T00:51:42;95130.94;;;23.44;61.51
3428;BME280;1727;42.624;23.406;2022-07-23T00:54:09;95126.59;;;23.49;60.09
3428;BME280;1727;42.624;23.406;2022-07-23T00:56:36;95124.97;;;23.55;59.97
3428;BME280;1727;42.624;23.406;2022-07-23T00:59:05;95128.50;;;23.56;59.77
3428;BME280;1727;42.624;23.406;2022-07-23T01:01:32;95124.34;;;23.53;58.85
3428;BME280;1727;42.624;23.406;2022-07-23T01:03:59;95117.53;;;23.44;58.54
3428;BME280;1727;42.624;23.406;2022-07-23T01:06:26;95119.34;;;23.30;59.05
3428;BME280;1727;42.624;23.406;2022-07-23T01:08:53;95120.78;;;23.26;59.57
3428;BME280;1727;42.624;23.406;2022-07-23T01:11:22;95122.63;;;23.26;59.11
3428;BME280;1727;42.624;23.406;2022-07-23T01:13:49;95123.88;;;23.23;59.03
3428;BME280;1727;42.624;23.406;2022-07-23T01:16:18;95126.13;;;23.20;58.98
3428;BME280;1727;42.624;23.406;2022-07-23T01:18:44;95117.22;;;23.12;59.25
3428;BME280;1727;42.624;23.406;2022-07-23T01:21:12;95109.19;;;23.06;59.59
3428;BME280;1727;42.624;23.406;2022-07-23T01:23:41;95108.56;;;22.97;59.85
3428;BME280;1727;42.624;23.406;2022-07-23T01:26:08;95110.41;;;22.97;60.38
3428;BME280;1727;42.624;23.406;2022-07-23T01:28:35;95112.66;;;22.93;60.61
3428;BME280;1727;42.624;23.406;2022-07-23T01:31:01;95102.78;;;22.94;60.04
3428;BME280;1727;42.624;23.406;2022-07-23T01:33:28;95103.72;;;22.79;60.10
3428;BME280;1727;42.624;23.406;2022-07-23T01:35:55;95104.38;;;22.81;60.85
3428;BME280;1727;42.624;23.406;2022-07-23T01:38:22;95096.59;;;22.86;60.18
3428;BME280;1727;42.624;23.406;2022-07-23T01:40:50;95099.25;;;22.86;59.94
3428;BME280;1727;42.624;23.406;2022-07-23T01:43:17;95088.47;;;22.80;60.44
3428;BME280;1727;42.624;23.406;2022-07-23T01:45:44;95104.53;;;22.80;60.38
3428;BME280;1727;42.624;23.406;2022-07-23T01:51:39;95099.56;;;22.70;60.36
3428;BME280;1727;42.624;23.406;2022-07-23T01:54:25;95097.91;;;22.63;60.91
3428;BME280;1727;42.624;23.406;2022-07-23T01:57:01;95102.41;;;22.62;61.05
3428;BME280;1727;42.624;23.406;2022-07-23T01:59:28;95104.06;;;22.63;60.49
3428;BME280;1727;42.624;23.406;2022-07-23T02:02:02;95105.25;;;22.54;60.96
3428;BME280;1727;42.624;23.406;2022-07-23T02:04:31;95108.75;;;22.54;61.13
3428;BME280;1727;42.624;23.406;2022-07-23T02:07:00;95112.63;;;22.52;60.74
3428;BME280;1727;42.624;23.406;2022-07-23T02:09:27;95103.22;;;22.56;61.03
3428;BME280;1727;42.624;23.406;2022-07-23T02:11:55;95102.34;;;22.49;60.61
3428;BME280;1727;42.624;23.406;2022-07-23T02:14:23;95100.88;;;22.46;61.11
3428;BME280;1727;42.624;23.406;2022-07-23T02:16:49;95107.75;;;22.55;61.95
3428;BME280;1727;42.624;23.406;2022-07-23T02:22:38;95104.44;;;22.19;61.76
3428;BME280;1727;42.624;23.406;2022-07-23T02:25:06;95115.56;;;22.22;61.84
3428;BME280;1727;42.624;23.406;2022-07-23T02:27:35;95110.47;;;22.28;62.56
3428;BME280;1727;42.624;23.406;2022-07-23T02:30:03;95118.72;;;22.33;62.38
3428;BME280;1727;42.624;23.406;2022-07-23T02:32:30;95111.75;;;22.38;62.35
3428;BME280;1727;42.624;23.406;2022-07-23T02:37:24;95111.91;;;22.65;64.99
3428;BME280;1727;42.624;23.406;2022-07-23T02:39:50;95116.47;;;23.25;62.08
3428;BME280;1727;42.624;23.406;2022-07-23T02:42:17;95116.59;;;23.10;58.87
3428;BME280;1727;42.624;23.406;2022-07-23T02:44:45;95108.75;;;22.89;59.44
3428;BME280;1727;42.624;23.406;2022-07-23T02:47:12;95116.66;;;22.69;60.24
3428;BME280;1727;42.624;23.406;2022-07-23T02:49:39;95119.78;;;22.38;61.42
3428;BME280;1727;42.624;23.406;2022-07-23T02:52:06;95132.00;;;22.19;61.98
3428;BME280;1727;42.624;23.406;2022-07-23T02:54:33;95136.16;;;22.01;62.91
3428;BME280;1727;42.624;23.406;2022-07-23T02:57:00;95127.34;;;21.79;63.89
3428;BME280;1727;42.624;23.406;2022-07-23T02:59:26;95135.03;;;21.67;64.48
3428;BME280;1727;42.624;23.406;2022-07-23T03:01:55;95134.59;;;21.63;64.82
3428;BME280;1727;42.624;23.406;2022-07-23T03:04:21;95134.50;;;21.50;65.36
3428;BME280;1727;42.624;23.406;2022-07-23T03:06:48;95139.69;;;21.37;65.85
3428;BME280;1727;42.624;23.406;2022-07-23T03:09:15;95134.28;;;21.30;65.92
3428;BME280;1727;42.624;23.406;2022-07-23T03:11:42;95143.75;;;21.33;66.44
3428;BME280;1727;42.624;23.406;2022-07-23T03:14:09;95139.41;;;21.47;67.02
3428;BME280;1727;42.624;23.406;2022-07-23T03:16:38;95150.00;;;21.83;66.14
3428;BME280;1727;42.624;23.406;2022-07-23T03:19:06;95145.31;;;22.13;64.61
3428;BME280;1727;42.624;23.406;2022-07-23T03:21:33;95152.88;;;22.37;63.05
3428;BME280;1727;42.624;23.406;2022-07-23T03:24:04;95150.41;;;22.77;63.02
3428;BME280;1727;42.624;23.406;2022-07-23T03:26:31;95154.91;;;22.70;61.94
3428;BME280;1727;42.624;23.406;2022-07-23T03:28:58;95149.94;;;22.95;62.13
3428;BME280;1727;42.624;23.406;2022-07-23T03:31:26;95165.03;;;23.15;62.24
3428;BME280;1727;42.624;23.406;2022-07-23T03:33:53;95161.56;;;23.22;61.00
3428;BME280;1727;42.624;23.406;2022-07-23T03:36:21;95157.50;;;23.45;60.60
3428;BME280;1727;42.624;23.406;2022-07-23T03:38:48;95161.06;;;23.59;59.88
3428;BME280;1727;42.624;23.406;2022-07-23T03:41:16;95165.63;;;23.85;62.77
3428;BME280;1727;42.624;23.406;2022-07-23T03:43:42;95166.25;;;24.14;63.63
3428;BME280;1727;42.624;23.406;2022-07-23T03:46:09;95167.69;;;24.23;63.61
3428;BME280;1727;42.624;23.406;2022-07-23T03:48:36;95168.28;;;24.25;60.49
3428;BME280;1727;42.624;23.406;2022-07-23T03:51:03;95166.22;;;24.27;61.62
3428;BME280;1727;42.624;23.406;2022-07-23T03:53:31;95168.72;;;24.28;60.78
3428;BME280;1727;42.624;23.406;2022-07-23T03:55:58;95169.78;;;24.34;61.15
3428;BME280;1727;42.624;23.406;2022-07-23T03:58:25;95168.53;;;24.43;60.13
3428;BME280;1727;42.624;23.406;2022-07-23T04:00:52;95172.00;;;24.50;57.75
3428;BME280;1727;42.624;23.406;2022-07-23T04:03:19;95171.59;;;24.60;55.69
3428;BME280;1727;42.624;23.406;2022-07-23T04:05:45;95165.34;;;24.79;59.10
3428;BME280;1727;42.624;23.406;2022-07-23T04:08:12;95174.75;;;25.08;58.48
3428;BME280;1727;42.624;23.406;2022-07-23T04:10:40;95180.63;;;25.37;57.32
3428;BME280;1727;42.624;23.406;2022-07-23T04:13:08;95171.81;;;25.61;55.50
3428;BME280;1727;42.624;23.406;2022-07-23T04:15:35;95172.13;;;25.84;56.53
3428;BME280;1727;42.624;23.406;2022-07-23T04:18:03;95164.91;;;26.10;55.34
3428;BME280;1727;42.624;23.406;2022-07-23T04:20:30;95171.41;;;26.20;53.59
3428;BME280;1727;42.624;23.406;2022-07-23T04:22:56;95157.59;;;26.42;53.87
3428;BME280;1727;42.624;23.406;2022-07-23T04:25:23;95164.69;;;26.61;51.48
3428;BME280;1727;42.624;23.406;2022-07-23T04:27:51;95168.19;;;26.80;50.44
3428;BME280;1727;42.624;23.406;2022-07-23T04:30:18;95173.75;;;27.03;49.96
3428;BME280;1727;42.624;23.406;2022-07-23T04:32:45;95170.97;;;27.28;49.24
3428;BME280;1727;42.624;23.406;2022-07-23T04:35:12;95179.41;;;27.50;47.95
3428;BME280;1727;42.624;23.406;2022-07-23T04:37:38;95182.88;;;27.69;47.71
3428;BME280;1727;42.624;23.406;2022-07-23T04:40:06;95182.25;;;27.85;48.50
3428;BME280;1727;42.624;23.406;2022-07-23T04:42:33;95183.50;;;28.13;46.75
3428;BME280;1727;42.624;23.406;2022-07-23T04:45:01;95198.00;;;28.42;47.96
3428;BME280;1727;42.624;23.406;2022-07-23T04:47:29;95193.53;;;28.59;46.68
3428;BME280;1727;42.624;23.406;2022-07-23T04:49:56;95188.59;;;28.79;45.41
3428;BME280;1727;42.624;23.406;2022-07-23T04:52:23;95190.63;;;28.95;43.87
3428;BME280;1727;42.624;23.406;2022-07-23T04:54:50;95190.88;;;28.94;44.94
3428;BME280;1727;42.624;23.406;2022-07-23T04:57:16;95198.94;;;28.82;44.49
3428;BME280;1727;42.624;23.406;2022-07-23T04:59:43;95189.78;;;28.83;44.62
3428;BME280;1727;42.624;23.406;2022-07-23T05:02:11;95194.41;;;28.94;44.17
3428;BME280;1727;42.624;23.406;2022-07-23T05:04:38;95199.06;;;28.52;44.17
3428;BME280;1727;42.624;23.406;2022-07-23T05:07:05;95192.94;;;28.57;44.83
3428;BME280;1727;42.624;23.406;2022-07-23T05:09:32;95189.34;;;28.63;45.02
3428;BME280;1727;42.624;23.406;2022-07-23T05:11:59;95202.38;;;28.89;44.68
3428;BME280;1727;42.624;23.406;2022-07-23T05:14:26;95205.72;;;29.20;44.10
3428;BME280;1727;42.624;23.406;2022-07-23T05:16:53;95195.47;;;29.45;43.05
3428;BME280;1727;42.624;23.406;2022-07-23T05:19:21;95193.28;;;29.71;42.48
3428;BME280;1727;42.624;23.406;2022-07-23T05:21:48;95193.50;;;29.98;41.95
3428;BME280;1727;42.624;23.406;2022-07-23T05:24:15;95197.91;;;30.15;41.28
3428;BME280;1727;42.624;23.406;2022-07-23T05:26:42;95202.63;;;30.37;41.32
3428;BME280;1727;42.624;23.406;2022-07-23T05:29:09;95195.28;;;30.54;40.83
3428;BME280;1727;42.624;23.406;2022-07-23T05:31:35;95202.44;;;30.77;41.19
3428;BME280;1727;42.624;23.406;2022-07-23T05:34:02;95206.34;;;31.03;39.68
3428;BME280;1727;42.624;23.406;2022-07-23T05:36:31;95206.78;;;31.33;39.46
3428;BME280;1727;42.624;23.406;2022-07-23T05:38:57;95203.19;;;31.50;38.33
3428;BME280;1727;42.624;23.406;2022-07-23T05:41:24;95200.66;;;31.65;38.11
3428;BME280;1727;42.624;23.406;2022-07-23T05:43:51;95193.72;;;31.74;38.25
3428;BME280;1727;42.624;23.406;2022-07-23T05:46:19;95205.44;;;31.80;37.76
3428;BME280;1727;42.624;23.406;2022-07-23T05:48:46;95198.13;;;31.80;37.99
3428;BME280;1727;42.624;23.406;2022-07-23T05:51:19;95194.53;;;31.74;37.92
3428;BME280;1727;42.624;23.406;2022-07-23T05:53:48;95195.50;;;31.85;36.91
3428;BME280;1727;42.624;23.406;2022-07-23T05:56:15;95196.44;;;31.74;37.40
3428;BME280;1727;42.624;23.406;2022-07-23T05:58:42;95201.91;;;31.79;37.77
3428;BME280;1727;42.624;23.406;2022-07-23T06:01:09;95209.94;;;31.91;37.73
3428;BME280;1727;42.624;23.406;2022-07-23T06:03:37;95204.09;;;32.04;36.96
3428;BME280;1727;42.624;23.406;2022-07-23T06:06:04;95201.78;;;32.18;36.91
3428;BME280;1727;42.624;23.406;2022-07-23T06:08:31;95198.81;;;32.19;36.89
3428;BME280;1727;42.624;23.406;2022-07-23T06:10:59;95205.47;;;32.33;37.12
3428;BME280;1727;42.624;23.406;2022-07-23T06:13:26;95197.28;;;32.60;37.35
3428;BME280;1727;42.624;23.406;2022-07-23T06:15:53;95195.31;;;32.83;36.48
3428;BME280;1727;42.624;23.406;2022-07-23T06:18:20;95189.91;;;32.93;36.01
3428;BME280;1727;42.624;23.406;2022-07-23T06:20:47;95198.75;;;33.10;36.53
3428;BME280;1727;42.624;23.406;2022-07-23T06:23:14;95187.97;;;33.31;37.01
3428;BME280;1727;42.624;23.406;2022-07-23T06:25:40;95191.53;;;32.57;35.71
3428;BME280;1727;42.624;23.406;2022-07-23T06:28:08;95190.56;;;32.36;36.72
3428;BME280;1727;42.624;23.406;2022-07-23T06:30:35;95183.91;;;31.95;37.76
3428;BME280;1727;42.624;23.406;2022-07-23T06:33:02;95182.00;;;31.95;37.69
3428;BME280;1727;42.624;23.406;2022-07-23T06:35:29;95184.16;;;31.93;38.27
3428;BME280;1727;42.624;23.406;2022-07-23T06:37:56;95177.88;;;31.88;38.52
3428;BME280;1727;42.624;23.406;2022-07-23T06:40:22;95185.72;;;31.62;38.88
3428;BME280;1727;42.624;23.406;2022-07-23T06:42:49;95179.81;;;31.70;38.19
3428;BME280;1727;42.624;23.406;2022-07-23T06:45:17;95179.25;;;31.90;37.26
3428;BME280;1727;42.624;23.406;2022-07-23T06:47:44;95173.56;;;31.92;37.97
3428;BME280;1727;42.624;23.406;2022-07-23T06:50:11;95181.41;;;31.88;36.89
3428;BME280;1727;42.624;23.406;2022-07-23T06:52:38;95173.53;;;31.65;39.36
3428;BME280;1727;42.624;23.406;2022-07-23T06:55:05;95176.19;;;31.60;37.94
3428;BME280;1727;42.624;23.406;2022-07-23T06:57:32;95175.88;;;31.56;37.57
3428;BME280;1727;42.624;23.406;2022-07-23T06:59:59;95177.97;;;31.71;39.16
3428;BME280;1727;42.624;23.406;2022-07-23T07:02:27;95177.66;;;31.94;37.82
3428;BME280;1727;42.624;23.406;2022-07-23T07:04:54;95176.31;;;31.97;38.57
3428;BME280;1727;42.624;23.406;2022-07-23T07:07:21;95174.19;;;32.26;37.09
3428;BME280;1727;42.624;23.406;2022-07-23T07:09:48;95173.25;;;32.42;37.32
3428;BME280;1727;42.624;23.406;2022-07-23T07:12:15;95173.88;;;32.54;35.91
3428;BME280;1727;42.624;23.406;2022-07-23T07:14:41;95168.13;;;32.51;36.35
3428;BME280;1727;42.624;23.406;2022-07-23T07:17:08;95169.78;;;32.25;35.39
3428;BME280;1727;42.624;23.406;2022-07-23T07:19:37;95165.56;;;32.34;36.30
3428;BME280;1727;42.624;23.406;2022-07-23T07:22:04;95161.41;;;32.58;36.15
3428;BME280;1727;42.624;23.406;2022-07-23T07:24:31;95163.28;;;32.95;35.97
3428;BME280;1727;42.624;23.406;2022-07-23T07:26:58;95160.63;;;33.00;35.12
3428;BME280;1727;42.624;23.406;2022-07-23T07:29:24;95162.84;;;33.13;35.29
3428;BME280;1727;42.624;23.406;2022-07-23T07:31:52;95162.56;;;33.10;35.63
3428;BME280;1727;42.624;23.406;2022-07-23T07:34:19;95160.41;;;33.17;36.61
3428;BME280;1727;42.624;23.406;2022-07-23T07:36:47;95153.06;;;33.17;36.22
3428;BME280;1727;42.624;23.406;2022-07-23T07:39:15;95148.28;;;33.35;35.78
3428;BME280;1727;42.624;23.406;2022-07-23T07:41:42;95148.34;;;33.50;34.45
3428;BME280;1727;42.624;23.406;2022-07-23T07:44:08;95146.13;;;33.37;33.57
3428;BME280;1727;42.624;23.406;2022-07-23T07:46:35;95144.50;;;33.41;35.21
3428;BME280;1727;42.624;23.406;2022-07-23T07:49:02;95147.22;;;33.46;33.71
3428;BME280;1727;42.624;23.406;2022-07-23T07:51:29;95146.94;;;33.32;33.07
3428;BME280;1727;42.624;23.406;2022-07-23T07:53:57;95139.56;;;32.80;34.35
3428;BME280;1727;42.624;23.406;2022-07-23T07:56:24;95140.25;;;33.08;34.12
3428;BME280;1727;42.624;23.406;2022-07-23T07:58:51;95146.66;;;33.34;35.09
3428;BME280;1727;42.624;23.406;2022-07-23T08:01:17;95145.66;;;33.60;33.13
3428;BME280;1727;42.624;23.406;2022-07-23T08:03:45;95140.25;;;33.80;33.25
3428;BME280;1727;42.624;23.406;2022-07-23T08:06:12;95139.69;;;33.68;31.63
3428;BME280;1727;42.624;23.406;2022-07-23T08:08:39;95134.78;;;33.70;31.15
3428;BME280;1727;42.624;23.406;2022-07-23T08:11:07;95130.34;;;33.44;30.92
3428;BME280;1727;42.624;23.406;2022-07-23T08:13:34;95130.34;;;33.39;31.95
3428;BME280;1727;42.624;23.406;2022-07-23T08:16:01;95132.25;;;33.43;31.97
3428;BME280;1727;42.624;23.406;2022-07-23T08:18:28;95132.53;;;33.37;32.62
3428;BME280;1727;42.624;23.406;2022-07-23T08:20:55;95130.56;;;33.27;32.22
3428;BME280;1727;42.624;23.406;2022-07-23T08:23:22;95122.34;;;33.22;32.50
3428;BME280;1727;42.624;23.406;2022-07-23T08:25:48;95128.91;;;33.26;31.59
3428;BME280;1727;42.624;23.406;2022-07-23T08:28:17;95126.47;;;33.30;31.60
3428;BME280;1727;42.624;23.406;2022-07-23T08:30:44;95132.25;;;33.43;32.69
3428;BME280;1727;42.624;23.406;2022-07-23T08:33:13;95122.19;;;33.39;31.88
3428;BME280;1727;42.624;23.406;2022-07-23T08:35:42;95127.09;;;33.52;32.22
3428;BME280;1727;42.624;23.406;2022-07-23T08:38:13;95124.66;;;33.50;32.36
3428;BME280;1727;42.624;23.406;2022-07-23T08:40:42;95117.84;;;33.48;33.56
3428;BME280;1727;42.624;23.406;2022-07-23T08:43:10;95127.09;;;33.52;33.63
3428;BME280;1727;42.624;23.406;2022-07-23T08:45:40;95125.25;;;33.68;32.77
3428;BME280;1727;42.624;23.406;2022-07-23T08:48:09;95129.47;;;33.28;32.01
3428;BME280;1727;42.624;23.406;2022-07-23T08:50:37;95123.13;;;33.12;32.73
3428;BME280;1727;42.624;23.406;2022-07-23T08:53:07;95112.28;;;33.22;33.89
3428;BME280;1727;42.624;23.406;2022-07-23T08:55:33;95110.97;;;33.30;33.01
3428;BME280;1727;42.624;23.406;2022-07-23T08:58:00;95119.47;;;33.39;32.88
3428;BME280;1727;42.624;23.406;2022-07-23T09:00:28;95112.94;;;33.40;32.74
3428;BME280;1727;42.624;23.406;2022-07-23T09:02:56;95114.56;;;33.41;33.06
3428;BME280;1727;42.624;23.406;2022-07-23T09:05:23;95117.31;;;33.46;32.55
3428;BME280;1727;42.624;23.406;2022-07-23T09:08:07;95106.97;;;33.53;32.53
3428;BME280;1727;42.624;23.406;2022-07-23T09:10:59;95109.72;;;33.58;32.24
3428;BME280;1727;42.624;23.406;2022-07-23T09:13:32;95110.47;;;33.38;32.14
3428;BME280;1727;42.624;23.406;2022-07-23T09:16:01;95109.38;;;33.34;32.97
3428;BME280;1727;42.624;23.406;2022-07-23T09:18:31;95105.06;;;33.53;32.29
3428;BME280;1727;42.624;23.406;2022-07-23T09:21:12;95116.56;;;33.71;31.78
3428;BME280;1727;42.624;23.406;2022-07-23T09:23:41;95102.09;;;33.55;30.55
3428;BME280;1727;42.624;23.406;2022-07-23T09:26:26;95099.38;;;33.60;32.39
3428;BME280;1727;42.624;23.406;2022-07-23T09:28:57;95105.38;;;33.77;32.59
3428;BME280;1727;42.624;23.406;2022-07-23T09:31:30;95102.66;;;33.77;30.90
3428;BME280;1727;42.624;23.406;2022-07-23T09:34:08;95099.47;;;34.01;31.23
3428;BME280;1727;42.624;23.406;2022-07-23T09:36:35;95095.38;;;34.24;32.14
3428;BME280;1727;42.624;23.406;2022-07-23T09:39:03;95091.31;;;34.46;31.62
3428;BME280;1727;42.624;23.406;2022-07-23T09:41:35;95089.91;;;34.59;30.72
3428;BME280;1727;42.624;23.406;2022-07-23T09:44:11;95094.28;;;34.70;31.13
3428;BME280;1727;42.624;23.406;2022-07-23T09:46:38;95080.06;;;34.68;29.92
3428;BME280;1727;42.624;23.406;2022-07-23T09:49:16;95079.50;;;34.82;29.64
3428;BME280;1727;42.624;23.406;2022-07-23T09:51:51;95073.78;;;34.88;30.49
3428;BME280;1727;42.624;23.406;2022-07-23T09:54:24;95070.75;;;34.95;31.69
3428;BME280;1727;42.624;23.406;2022-07-23T09:56:52;95072.91;;;35.03;28.56
3428;BME280;1727;42.624;23.406;2022-07-23T09:59:23;95064.47;;;34.99;28.64
3428;BME280;1727;42.624;23.406;2022-07-23T10:01:52;95064.47;;;34.94;27.93
3428;BME280;1727;42.624;23.406;2022-07-23T10:04:21;95060.13;;;34.93;29.03
3428;BME280;1727;42.624;23.406;2022-07-23T10:06:51;95054.69;;;34.88;29.76
3428;BME280;1727;42.624;23.406;2022-07-23T10:09:23;95055.53;;;34.84;28.58
3428;BME280;1727;42.624;23.406;2022-07-23T10:11:52;95061.22;;;34.82;27.54
3428;BME280;1727;42.624;23.406;2022-07-23T10:14:23;95053.34;;;34.65;27.38
3428;BME280;1727;42.624;23.406;2022-07-23T10:16:50;95049.56;;;34.56;26.49
3428;BME280;1727;42.624;23.406;2022-07-23T10:19:17;95041.16;;;34.47;26.59
3428;BME280;1727;42.624;23.406;2022-07-23T10:21:49;95052.06;;;34.37;28.43
3428;BME280;1727;42.624;23.406;2022-07-23T10:24:30;95045.53;;;34.43;28.08
3428;BME280;1727;42.624;23.406;2022-07-23T10:27:04;95041.16;;;34.47;29.07
3428;BME280;1727;42.624;23.406;2022-07-23T10:29:42;95041.69;;;34.55;27.69
3428;BME280;1727;42.624;23.406;2022-07-23T10:32:20;95032.09;;;34.62;27.10
3428;BME280;1727;42.624;23.406;2022-07-23T10:34:54;95032.38;;;34.71;27.77
3428;BME280;1727;42.624;23.406;2022-07-23T10:37:28;95029.06;;;34.79;29.37
3428;BME280;1727;42.624;23.406;2022-07-23T10:40:17;95022.25;;;34.87;27.83
3428;BME280;1727;42.624;23.406;2022-07-23T10:42:45;95026.81;;;34.96;27.63
3428;BME280;1727;42.624;23.406;2022-07-23T10:45:30;95025.94;;;35.11;27.78
3428;BME280;1727;42.624;23.406;2022-07-23T10:48:13;95012.00;;;35.18;27.53
3428;BME280;1727;42.624;23.406;2022-07-23T10:50:41;95017.69;;;35.21;26.37
3428;BME280;1727;42.624;23.406;2022-07-23T10:53:14;95012.50;;;35.25;28.92
3428;BME280;1727;42.624;23.406;2022-07-23T10:55:50;95010.56;;;35.30;27.54
3428;BME280;1727;42.624;23.406;2022-07-23T10:58:19;95005.66;;;35.32;26.73
3428;BME280;1727;42.624;23.406;2022-07-23T11:00:47;95007.56;;;35.32;27.18
3428;BME280;1727;42.624;23.406;2022-07-23T11:03:31;95006.13;;;35.45;27.13
3428;BME280;1727;42.624;23.406;2022-07-23T11:06:04;94994.34;;;35.49;27.68
3428;BME280;1727;42.624;23.406;2022-07-23T11:08:32;95003.69;;;35.43;25.61
3428;BME280;1727;42.624;23.406;2022-07-23T11:11:10;94992.19;;;35.46;22.66
3428;BME280;1727;42.624;23.406;2022-07-23T11:13:55;94984.78;;;35.52;23.48
3428;BME280;1727;42.624;23.406;2022-07-23T11:16:24;94986.69;;;35.51;22.36
3428;BME280;1727;42.624;23.406;2022-07-23T11:18:56;94988.13;;;35.44;22.75
3428;BME280;1727;42.624;23.406;2022-07-23T11:21:50;94989.50;;;35.41;22.81
3428;BME280;1727;42.624;23.406;2022-07-23T11:24:23;94981.84;;;35.43;21.66
3428;BME280;1727;42.624;23.406;2022-07-23T11:27:00;94978.50;;;35.51;20.52
3428;BME280;1727;42.624;23.406;2022-07-23T11:29:47;94982.28;;;35.60;20.92
3428;BME280;1727;42.624;23.406;2022-07-23T11:32:35;94972.41;;;35.64;20.25
3428;BME280;1727;42.624;23.406;2022-07-23T11:35:19;94970.78;;;35.63;20.25
3428;BME280;1727;42.624;23.406;2022-07-23T11:37:46;94963.75;;;35.57;21.18
3428;BME280;1727;42.624;23.406;2022-07-23T11:40:16;94962.59;;;35.63;21.28
3428;BME280;1727;42.624;23.406;2022-07-23T11:42:54;94958.72;;;35.69;21.61
3428;BME280;1727;42.624;23.406;2022-07-23T11:45:22;94964.75;;;35.66;20.67
3428;BME280;1727;42.624;23.406;2022-07-23T11:47:49;94964.22;;;35.64;21.30
3428;BME280;1727;42.624;23.406;2022-07-23T11:50:16;94965.28;;;35.68;20.96
3428;BME280;1727;42.624;23.406;2022-07-23T11:52:43;94958.44;;;35.71;20.94
3428;BME280;1727;42.624;23.406;2022-07-23T11:55:10;94964.19;;;35.69;20.10
3428;BME280;1727;42.624;23.406;2022-07-23T11:57:40;94949.41;;;35.70;19.19
3428;BME280;1727;42.624;23.406;2022-07-23T12:00:09;94951.16;;;35.61;19.88
3428;BME280;1727;42.624;23.406;2022-07-23T12:02:36;94950.72;;;35.44;18.65
3428;BME280;1727;42.624;23.406;2022-07-23T12:05:04;94950.16;;;35.47;19.12
3428;BME280;1727;42.624;23.406;2022-07-23T12:07:32;94945.44;;;35.58;20.03
3428;BME280;1727;42.624;23.406;2022-07-23T12:10:03;94941.84;;;35.62;19.58
3428;BME280;1727;42.624;23.406;2022-07-23T12:12:35;94938.50;;;35.70;19.17
3428;BME280;1727;42.624;23.406;2022-07-23T12:15:06;94938.97;;;35.78;20.94
3428;BME280;1727;42.624;23.406;2022-07-23T12:17:35;94934.56;;;35.87;20.43
3428;BME280;1727;42.624;23.406;2022-07-23T12:20:03;94932.09;;;35.85;19.40
3428;BME280;1727;42.624;23.406;2022-07-23T12:22:36;94926.41;;;35.77;18.89
3428;BME280;1727;42.624;23.406;2022-07-23T12:25:06;94925.59;;;35.76;19.99
3428;BME280;1727;42.624;23.406;2022-07-23T12:27:34;94928.09;;;35.73;18.61
3428;BME280;1727;42.624;23.406;2022-07-23T12:30:21;94928.41;;;35.71;20.10
3428;BME280;1727;42.624;23.406;2022-07-23T12:32:50;94921.53;;;35.74;18.88
3428;BME280;1727;42.624;23.406;2022-07-23T12:35:18;94919.34;;;35.76;19.69
3428;BME280;1727;42.624;23.406;2022-07-23T12:37:47;94916.59;;;35.76;19.20
3428;BME280;1727;42.624;23.406;2022-07-23T12:40:28;94912.47;;;35.78;19.77
3428;BME280;1727;42.624;23.406;2022-07-23T12:42:56;94913.88;;;35.76;18.91
3428;BME280;1727;42.624;23.406;2022-07-23T12:45:25;94907.84;;;35.79;20.33
3428;BME280;1727;42.624;23.406;2022-07-23T12:48:01;94909.16;;;35.81;19.85
3428;BME280;1727;42.624;23.406;2022-07-23T12:50:38;94901.25;;;35.80;18.82
3428;BME280;1727;42.624;23.406;2022-07-23T12:53:06;94907.31;;;35.77;19.19
3428;BME280;1727;42.624;23.406;2022-07-23T12:55:34;94900.16;;;35.81;19.91
3428;BME280;1727;42.624;23.406;2022-07-23T12:58:05;94900.16;;;35.81;19.90
3428;BME280;1727;42.624;23.406;2022-07-23T13:00:49;94903.16;;;35.84;20.15
3428;BME280;1727;42.624;23.406;2022-07-23T13:03:27;94900.44;;;35.84;18.39
3428;BME280;1727;42.624;23.406;2022-07-23T13:05:55;94894.16;;;35.84;19.88
3428;BME280;1727;42.624;23.406;2022-07-23T13:08:24;94885.69;;;35.80;17.80
3428;BME280;1727;42.624;23.406;2022-07-23T13:10:51;94895.81;;;35.80;19.44
3428;BME280;1727;42.624;23.406;2022-07-23T13:13:21;94895.28;;;35.78;17.48
3428;BME280;1727;42.624;23.406;2022-07-23T13:15:49;94896.97;;;35.74;17.28
3428;BME280;1727;42.624;23.406;2022-07-23T13:18:17;94889.69;;;35.64;17.19
3428;BME280;1727;42.624;23.406;2022-07-23T13:20:45;94888.28;;;35.66;18.85
3428;BME280;1727;42.624;23.406;2022-07-23T13:23:12;94892.13;;;35.65;17.89
3428;BME280;1727;42.624;23.406;2022-07-23T13:25:40;94884.47;;;35.67;18.35
3428;BME280;1727;42.624;23.406;2022-07-23T13:28:06;94886.66;;;35.65;17.15